Time;durP1;ratioP1;P1;durP2;ratioP2;P2;SDS_P1;SDS_P2;PMS_P1;PMS_P2;Temp;Humidity;BMP_temperature;BMP_pressure;BME280_temperature;BME280_humidity;BME280_pressure;Samples;Min_cycle;Max_cycle;Signal;HPM_P1;HPM_P2
2021/11/18 00:01:35;;;;;;;41.58;20.33;;;;;;;;;;5063713;28;20246;-90
2021/11/18 00:04:01;;;;;;;46.83;21.13;;;;;;;;;;5046695;28;20175;-91
2021/11/18 00:06:27;;;;;;;52.65;21.67;;;;;;;;;;5044614;28;20171;-91
2021/11/18 00:08:57;;;;;;;44.47;22.75;;;6.50;99.90;;;;;;5044349;28;20208;-91
2021/11/18 00:11:23;;;;;;;42.53;19.75;;;6.50;99.90;;;;;;5050654;28;20221;-90
2021/11/18 00:14:07;;;;;;;46.72;21.08;;;6.60;99.90;;;;;;5049120;28;20179;-91
2021/11/18 00:16:33;;;;;;;34.95;19.90;;;;;;;;;;5044456;28;20201;-90
2021/11/18 00:18:59;;;;;;;36.38;18.35;;;;;;;;;;5047947;28;20210;-90
2021/11/18 00:21:32;;;;;;;41.60;17.55;;;6.70;99.90;;;;;;5044064;28;20195;-90
2021/11/18 00:23:58;;;;;;;37.00;18.70;;;6.60;99.90;;;;;;5045685;28;20179;-91
2021/11/18 00:26:27;;;;;;;40.60;21.05;;;6.60;99.90;;;;;;5044501;28;20172;-91
2021/11/18 00:28:54;;;;;;;40.95;21.30;;;;;;;;;;5045738;28;20203;-92
2021/11/18 00:31:36;;;;;;;40.75;20.30;;;6.60;99.90;;;;;;5045073;28;20183;-90
2021/11/18 00:34:03;;;;;;;42.22;18.98;;;6.60;99.90;;;;;;5046606;28;20182;-90
2021/11/18 00:36:29;;;;;;;40.40;21.50;;;6.50;99.90;;;;;;5044772;28;20175;-91
2021/11/18 00:38:56;;;;;;;40.67;21.52;;;6.60;99.90;;;;;;5046732;28;20229;-91
2021/11/18 00:41:22;;;;;;;34.90;20.08;;;;;;;;;;5043440;28;20175;-90
2021/11/18 00:43:48;;;;;;;41.17;20.00;;;6.50;99.90;;;;;;5042207;28;20175;-90
2021/11/18 00:46:19;;;;;;;42.20;20.13;;;6.50;99.90;;;;;;5061147;28;20171;-92
2021/11/18 00:48:45;;;;;;;43.08;21.08;;;;;;;;;;5042389;28;20226;-92
2021/11/18 00:51:20;;;;;;;36.90;21.17;;;6.50;99.90;;;;;;5045699;28;20193;-91
2021/11/18 00:53:50;;;;;;;37.00;19.95;;;6.50;99.90;;;;;;5065569;28;20416;-90
2021/11/18 00:56:20;;;;;;;44.20;21.20;;;6.50;99.90;;;;;;5047194;28;20175;-91
2021/11/18 00:58:46;;;;;;;46.80;21.25;;;;;;;;;;5046634;28;20238;-90
2021/11/18 01:01:15;;;;;;;49.83;20.00;;;6.50;99.90;;;;;;5044340;28;20268;-92
2021/11/18 01:03:43;;;;;;;37.92;21.45;;;6.60;99.90;;;;;;5062787;28;20485;-91
2021/11/18 01:06:09;;;;;;;49.42;20.50;;;;;;;;;;5047444;28;20202;-91
2021/11/18 01:08:35;;;;;;;51.05;22.55;;;;;;;;;;5067316;28;20201;-91
2021/11/18 01:11:13;;;;;;;40.75;22.40;;;6.40;99.90;;;;;;5032649;28;20294;-91
2021/11/18 01:13:41;;;;;;;40.30;21.85;;;6.40;99.90;;;;;;5048695;28;20171;-91
2021/11/18 01:16:08;;;;;;;46.40;23.88;;;6.40;99.90;;;;;;5047523;28;20171;-91
2021/11/18 01:18:35;;;;;;;40.67;21.85;;;;;;;;;;5048327;28;20181;-92
2021/11/18 01:21:03;;;;;;;39.67;23.02;;;6.40;99.90;;;;;;5044234;28;20182;-91
2021/11/18 01:23:34;;;;;;;43.95;23.15;;;6.50;99.90;;;;;;5044466;28;20250;-92
2021/11/18 01:26:00;;;;;;;37.95;21.13;;;;;;;;;;5044688;28;20261;-91
2021/11/18 01:28:29;;;;;;;44.92;22.80;;;6.30;99.90;;;;;;5043656;28;20175;-91
2021/11/18 01:30:55;;;;;;;45.42;23.35;;;;;;;;;;5046434;28;20167;-92
2021/11/18 01:33:27;;;;;;;43.72;22.33;;;6.50;99.90;;;;;;5048438;28;20171;-91
2021/11/18 01:35:53;;;;;;;34.47;21.00;;;6.40;99.90;;;;;;5048437;28;20332;-91
2021/11/18 01:38:20;;;;;;;39.00;19.50;;;6.30;99.90;;;;;;5049952;28;20175;-90
2021/11/18 01:40:54;;;;;;;48.55;23.23;;;6.20;99.90;;;;;;5046709;28;20211;-90
2021/11/18 01:43:24;;;;;;;45.42;23.98;;;6.20;99.90;;;;;;5047604;28;20704;-91
2021/11/18 01:45:50;;;;;;;52.13;23.88;;;;;;;;;;5048323;28;20178;-90
2021/11/18 01:48:16;;;;;;;50.20;24.90;;;;;;;;;;5047310;28;20632;-92
2021/11/18 01:50:46;;;;;;;49.87;26.20;;;6.10;99.90;;;;;;5049353;28;20176;-91
2021/11/18 01:53:14;;;;;;;49.90;24.92;;;6.10;99.90;;;;;;5045707;28;20417;-88
2021/11/18 01:55:44;;;;;;;55.00;25.77;;;6.10;99.90;;;;;;5048603;28;20177;-91
2021/11/18 01:58:12;;;;;;;54.60;22.63;;;6.10;99.90;;;;;;5047612;28;20168;-91
2021/11/18 02:00:49;;;;;;;47.42;23.38;;;6.20;99.90;;;;;;5048256;28;20332;-91
2021/11/18 02:03:15;;;;;;;41.60;23.27;;;;;;;;;;5048324;28;20171;-90
2021/11/18 02:06:01;;;;;;;44.08;22.77;;;6.30;99.90;;;;;;5049855;28;20186;-91
2021/11/18 02:08:27;;;;;;;45.45;23.23;;;6.10;99.90;;;;;;5052442;28;20179;-90
2021/11/18 02:10:58;;;;;;;54.55;25.50;;;6.10;99.90;;;;;;5048466;28;20226;-92
2021/11/18 02:13:24;;;;;;;54.28;25.60;;;;;;;;;;5047092;28;20635;-91
2021/11/18 02:16:04;;;;;;;54.30;25.65;;;6.00;99.90;;;;;;5048836;28;20198;-91
2021/11/18 02:18:35;;;;;;;62.92;23.80;;;6.00;99.90;;;;;;5049151;28;20220;-90
2021/11/18 02:21:07;;;;;;;45.28;22.65;;;5.90;99.90;;;;;;5051169;28;20167;-91
2021/11/18 02:23:44;;;;;;;36.35;21.42;;;6.00;99.90;;;;;;5034867;28;20183;-91
2021/11/18 02:26:27;;;;;;;52.20;21.30;;;6.10;99.90;;;;;;5050136;28;20171;-91
2021/11/18 02:29:00;;;;;;;48.25;24.30;;;6.00;99.90;;;;;;5050447;28;20203;-91
2021/11/18 02:31:57;;;;;;;46.35;24.92;;;5.90;99.90;;;;;;5051080;28;20199;-91
2021/11/18 02:34:40;;;;;;;49.67;24.55;;;6.00;99.90;;;;;;5048719;28;20185;-92
2021/11/18 02:37:06;;;;;;;47.15;23.15;;;;;;;;;;5050257;28;20171;-91
2021/11/18 02:39:35;;;;;;;47.78;22.08;;;;;;;;;;5049875;28;20175;-91
2021/11/18 02:42:06;;;;;;;52.85;23.58;;;6.00;99.90;;;;;;5048231;28;20263;-91
2021/11/18 02:44:33;;;;;;;47.28;24.77;;;;;;;;;;5067025;28;20172;-91
2021/11/18 02:47:12;;;;;;;54.83;21.90;;;5.90;99.90;;;;;;5051396;28;20630;-90
2021/11/18 02:49:41;;;;;;;49.13;23.67;;;6.00;99.90;;;;;;5050828;28;20234;-90
2021/11/18 02:52:10;;;;;;;54.33;23.33;;;;;;;;;;5051817;28;20239;-91
2021/11/18 02:54:37;;;;;;;56.28;22.23;;;;;;;;;;5049511;28;20266;-90
2021/11/18 02:57:03;;;;;;;53.95;25.80;;;;;;;;;;5062740;28;20173;-90
2021/11/18 02:59:29;;;;;;;54.42;23.55;;;;;;;;;;5049261;28;20194;-89
2021/11/18 03:02:01;;;;;;;62.22;25.48;;;;;;;;;;5045201;28;20183;-91
2021/11/18 03:04:27;;;;;;;46.28;22.30;;;;;;;;;;5049574;28;20171;-91
2021/11/18 03:06:56;;;;;;;48.28;24.27;;;5.90;99.90;;;;;;5046319;28;20176;-91
2021/11/18 03:09:22;;;;;;;59.60;24.42;;;;;;;;;;5052614;28;20232;-90
2021/11/18 03:11:50;;;;;;;62.95;24.52;;;;;;;;;;5062767;28;20230;-90
2021/11/18 03:14:16;;;;;;;44.38;21.70;;;;;;;;;;5062582;28;20171;-91
2021/11/18 03:16:45;;;;;;;60.90;25.80;;;;;;;;;;5056160;28;20179;-91
2021/11/18 03:19:11;;;;;;;51.00;23.67;;;;;;;;;;5053159;28;20186;-90
2021/11/18 03:21:38;;;;;;;45.17;19.50;;;6.00;99.90;;;;;;5053141;28;20167;-91
2021/11/18 03:24:07;;;;;;;51.30;22.48;;;6.10;99.90;;;;;;5052578;28;20171;-90
2021/11/18 03:26:33;;;;;;;55.30;22.52;;;6.00;99.90;;;;;;5049483;28;20196;-91
2021/11/18 03:29:00;;;;;;;47.25;22.85;;;;;;;;;;5045751;28;20215;-91
2021/11/18 03:31:26;;;;;;;53.45;21.95;;;6.00;99.90;;;;;;5046681;28;20202;-91
2021/11/18 03:33:59;;;;;;;44.95;22.08;;;6.00;99.90;;;;;;5046624;28;20240;-91
2021/11/18 03:36:28;;;;;;;53.67;23.45;;;6.00;99.90;;;;;;5047724;28;20191;-91
2021/11/18 03:38:56;;;;;;;59.60;23.02;;;;;;;;;;5045734;28;20179;-90
2021/11/18 03:41:26;;;;;;;51.45;21.75;;;6.00;99.90;;;;;;5046982;28;20171;-90
2021/11/18 03:43:55;;;;;;;63.10;23.42;;;5.90;99.90;;;;;;5045773;28;20176;-90
2021/11/18 03:46:26;;;;;;;53.10;23.75;;;5.90;99.90;;;;;;5044388;28;20167;-90
2021/11/18 03:48:53;;;;;;;54.55;23.70;;;;;;;;;;5066034;28;20587;-90
2021/11/18 03:51:24;;;;;;;60.85;23.65;;;5.90;99.90;;;;;;5046492;28;20246;-89
2021/11/18 03:53:52;;;;;;;57.50;24.08;;;5.90;99.90;;;;;;5045145;28;20178;-91
2021/11/18 03:56:22;;;;;;;53.72;24.35;;;5.90;99.90;;;;;;5046324;28;20186;-91
2021/11/18 03:58:48;;;;;;;51.35;20.38;;;;;;;;;;5043627;28;20175;-91
2021/11/18 04:01:15;;;;;;;57.20;23.55;;;;;;;;;;5062714;28;20170;-92
2021/11/18 04:03:41;;;;;;;44.33;22.80;;;5.30;99.90;;;;;;5044972;28;20214;-92
2021/11/18 04:06:10;;;;;;;46.63;22.30;;;5.90;99.90;;;;;;5061671;28;20163;-90
2021/11/18 04:08:39;;;;;;;51.78;23.38;;;;;;;;;;5043757;28;20172;-91
2021/11/18 04:11:07;;;;;;;55.45;24.27;;;;;;;;;;5042551;28;20219;-91
2021/11/18 04:13:35;;;;;;;63.75;25.90;;;;;;;;;;5046471;28;20225;-90
2021/11/18 04:16:03;;;;;;;59.75;21.95;;;5.90;99.90;;;;;;5062993;28;20167;-91
2021/11/18 04:18:29;;;;;;;59.58;24.00;;;;;;;;;;5045791;28;20175;-90
2021/11/18 04:20:55;;;;;;;48.00;21.85;;;;;;;;;;5062885;28;20182;-90
2021/11/18 04:23:32;;;;;;;59.05;24.05;;;5.80;99.90;;;;;;5046442;28;20167;-89
2021/11/18 04:25:59;;;;;;;61.20;23.30;;;;;;;;;;5064960;28;20167;-92
2021/11/18 04:28:34;;;;;;;61.33;22.25;;;5.90;99.90;;;;;;5046365;28;20171;-90
2021/11/18 04:31:05;;;;;;;66.25;23.77;;;5.90;99.90;;;;;;5048436;28;20178;-91
2021/11/18 04:33:37;;;;;;;58.47;24.38;;;5.90;99.90;;;;;;5048269;28;20178;-91
2021/11/18 04:36:06;;;;;;;42.78;21.25;;;6.00;99.90;;;;;;5065874;28;20320;-90
2021/11/18 04:38:32;;;;;;;64.90;23.48;;;;;;;;;;5047531;28;20582;-91
2021/11/18 04:40:59;;;;;;;51.67;20.55;;;6.00;99.90;;;;;;5046660;28;20607;-90
2021/11/18 04:43:26;;;;;;;54.88;22.95;;;;;;;;;;5050339;28;20171;-89
2021/11/18 04:45:52;;;;;;;41.70;19.27;;;;;;;;;;5050135;28;20201;-89
2021/11/18 04:48:18;;;;;;;50.50;20.60;;;;;;;;;;5050071;28;20615;-91
2021/11/18 04:50:45;;;;;;;57.40;23.77;;;;;;;;;;5066069;28;20356;-92
2021/11/18 04:53:11;;;;;;;50.10;23.10;;;;;;;;;;5066671;28;20167;-91
2021/11/18 04:55:38;;;;;;;57.90;22.95;;;6.10;99.90;;;;;;5050012;28;20429;-92
2021/11/18 04:58:05;;;;;;;50.55;24.17;;;6.00;99.90;;;;;;5048967;28;20171;-90
2021/11/18 05:00:38;;;;;;;53.42;22.77;;;6.10;99.90;;;;;;5068338;28;20187;-93
2021/11/18 05:03:06;;;;;;;47.63;22.50;;;6.10;99.90;;;;;;5046978;28;20172;-91
2021/11/18 05:05:36;;;;;;;60.60;22.63;;;6.30;99.90;;;;;;5065764;28;20167;-91
2021/11/18 05:08:03;;;;;;;49.67;20.13;;;;;;;;;;5037182;28;20198;-89
2021/11/18 05:10:29;;;;;;;51.50;22.90;;;;;;;;;;5071523;28;20211;-91
2021/11/18 05:12:56;;;;;;;60.83;20.25;;;6.30;99.90;;;;;;5052380;28;20191;-91
2021/11/18 05:15:32;;;;;;;45.63;20.13;;;6.40;99.90;;;;;;5052011;28;20182;-91
2021/11/18 05:18:11;;;;;;;;;;;;;;;;;;;;;
2021/11/18 05:20:47;;;;;;;45.08;21.60;;;6.40;99.90;;;;;;5069991;28;20187;-91
2021/11/18 05:23:18;;;;;;;46.08;19.40;;;6.40;99.90;;;;;;5053795;28;20171;-90
2021/11/18 05:25:48;;;;;;;43.85;19.05;;;6.50;99.90;;;;;;5054213;28;20186;-92
2021/11/18 05:28:16;;;;;;;43.95;19.90;;;;;;;;;;5052740;28;20171;-91
2021/11/18 05:30:45;;;;;;;39.42;21.30;;;;;;;;;;5064344;28;20214;-91
2021/11/18 05:33:14;;;;;;;59.53;22.33;;;6.50;99.90;;;;;;5045487;28;20183;-91
2021/11/18 05:35:42;;;;;;;59.08;24.20;;;6.50;99.90;;;;;;5046212;28;20187;-90
2021/11/18 05:38:11;;;;;;;43.33;16.20;;;;;;;;;;5031214;28;20262;-88
2021/11/18 05:40:41;;;;;;;40.85;18.85;;;6.60;99.90;;;;;;5022122;28;20169;-91
2021/11/18 05:43:08;;;;;;;40.20;20.73;;;;;;;;;;5024766;28;20173;-90
2021/11/18 05:45:37;;;;;;;47.67;22.90;;;6.70;99.90;;;;;;5036215;28;20176;-85
2021/11/18 05:48:08;;;;;;;49.08;21.73;;;6.50;99.90;;;;;;5035215;28;20192;-92
2021/11/18 05:50:56;;;;;;;42.00;26.90;;;6.60;99.90;;;;;;5032022;28;20222;-91
2021/11/18 05:53:31;;;;;;;40.00;18.50;;;6.50;99.90;;;;;;5025629;28;20557;-90
2021/11/18 05:56:08;;;;;;;40.10;18.57;;;6.70;99.90;;;;;;4685492;28;9999963;-91
2021/11/18 05:59:03;;;;;;;46.92;19.85;;;6.70;99.90;;;;;;5031771;28;20413;-90
2021/11/18 06:01:31;;;;;;;49.13;21.25;;;;;;;;;;5028434;28;20211;-90
2021/11/18 06:03:58;;;;;;;39.88;17.02;;;6.60;99.90;;;;;;5030794;28;20164;-88
2021/11/18 06:06:26;;;;;;;44.85;20.00;;;6.80;99.90;;;;;;5054928;28;20427;-91
2021/11/18 06:08:53;;;;;;;34.75;19.15;;;;;;;;;;5029526;28;20203;-90
2021/11/18 06:11:19;;;;;;;36.70;18.30;;;;;;;;;;5025484;28;20232;-89
2021/11/18 06:13:50;;;;;;;42.40;17.67;;;;;;;;;;5028827;28;20165;-90
2021/11/18 06:16:21;;;;;;;41.35;18.40;;;6.80;99.90;;;;;;5012530;28;20644;-91
2021/11/18 06:18:47;;;;;;;35.63;18.70;;;;;;;;;;5009382;28;20172;-91
2021/11/18 06:21:13;;;;;;;36.13;17.50;;;;;;;;;;5006106;28;20187;-91
2021/11/18 06:23:39;;;;;;;50.85;19.15;;;6.80;99.90;;;;;;5007671;28;20176;-89
2021/11/18 06:26:05;;;;;;;41.50;17.90;;;;;;;;;;5026942;28;20193;-89
2021/11/18 06:28:34;;;;;;;33.47;17.27;;;6.80;99.90;;;;;;5011762;28;20172;-92
2021/11/18 06:31:10;;;;;;;43.65;18.60;;;6.80;99.90;;;;;;5008368;28;20311;-87
2021/11/18 06:33:40;;;;;;;43.33;20.45;;;6.80;99.90;;;;;;5020510;28;20251;-88
2021/11/18 06:36:09;;;;;;;38.65;18.90;;;;;;;;;;5002258;28;20429;-91
2021/11/18 06:38:37;;;;;;;41.47;18.13;;;7.00;99.90;;;;;;5012158;28;20480;-91
2021/11/18 06:41:03;;;;;;;46.20;18.17;;;;;;;;;;5011069;28;20271;-87
2021/11/18 06:43:29;;;;;;;36.03;18.10;;;;;;;;;;5005468;28;20267;-90
2021/11/18 06:45:55;;;;;;;45.63;19.70;;;6.70;99.90;;;;;;5009584;28;20636;-90
2021/11/18 06:48:26;;;;;;;55.13;19.70;;;6.90;99.90;;;;;;5025130;28;20198;-90
2021/11/18 06:51:18;;;;;;;43.97;17.20;;;6.90;99.90;;;;;;5010618;28;20446;-91
2021/11/18 06:53:46;;;;;;;41.95;18.30;;;6.90;99.90;;;;;;4996566;28;20177;-90
2021/11/18 06:56:14;;;;;;;32.72;16.20;;;6.90;99.90;;;;;;4995537;28;20181;-91
2021/11/18 06:58:42;;;;;;;41.65;19.17;;;6.90;99.90;;;;;;5006515;28;20207;-88
2021/11/18 07:01:09;;;;;;;32.28;17.55;;;;;;;;;;4999308;28;20176;-90
2021/11/18 07:03:39;;;;;;;47.63;19.60;;;;;;;;;;5003459;28;20188;-90
2021/11/18 07:06:06;;;;;;;43.50;16.42;;;;;;;;;;5007484;28;20180;-91
2021/11/18 07:08:32;;;;;;;33.33;15.95;;;;;;;;;;5023472;28;20168;-90
2021/11/18 07:11:03;;;;;;;34.07;17.43;;;6.90;99.90;;;;;;5018147;28;20279;-91
2021/11/18 07:13:39;;;;;;;29.08;14.43;;;7.00;99.90;;;;;;5029674;28;20423;-90
2021/11/18 07:16:10;;;;;;;33.53;16.55;;;7.00;99.90;;;;;;5031915;28;20275;-86
2021/11/18 07:18:36;;;;;;;38.55;17.83;;;6.80;99.90;;;;;;5030063;28;20161;-88
2021/11/18 07:21:12;;;;;;;32.10;16.10;;;6.90;99.90;;;;;;5012993;28;20269;-89
2021/11/18 07:23:39;;;;;;;37.33;18.67;;;6.80;99.90;;;;;;4992299;28;20172;-89
2021/11/18 07:26:09;;;;;;;38.13;17.85;;;6.90;99.90;;;;;;5030477;28;20165;-87
2021/11/18 07:29:02;;;;;;;40.53;18.65;;;7.30;99.90;;;;;;5030060;28;20173;-91
2021/11/18 07:31:30;;;;;;;43.67;18.95;;;;;;;;;;5006554;28;20597;-90
2021/11/18 07:33:56;;;;;;;29.83;16.13;;;;;;;;;;5017534;28;20169;-86
2021/11/18 07:36:22;;;;;;;43.47;20.00;;;;;;;;;;5017497;28;20262;-89
2021/11/18 07:38:48;;;;;;;31.97;16.23;;;7.00;99.90;;;;;;4659655;28;9999659;-90
2021/11/18 07:41:14;;;;;;;38.97;18.83;;;6.90;99.90;;;;;;5033389;28;20179;-89
2021/11/18 07:43:42;;;;;;;42.47;18.77;;;7.00;99.90;;;;;;5040379;28;20616;-91
2021/11/18 07:46:11;;;;;;;28.00;15.07;;;7.00;99.90;;;;;;5016815;28;20651;-87
2021/11/18 07:48:37;;;;;;;32.85;17.98;;;;;;;;;;5034810;28;20175;-88
2021/11/18 07:51:04;;;;;;;41.42;19.20;;;7.10;99.90;;;;;;5034932;28;20171;-91
2021/11/18 07:53:31;;;;;;;35.78;14.27;;;7.10;99.90;;;;;;5017214;28;20176;-89
2021/11/18 07:55:57;;;;;;;33.63;16.63;;;;;;;;;;5016207;28;20172;-90
2021/11/18 07:58:23;;;;;;;26.40;14.07;;;;;;;;;;5017484;28;20178;-90
2021/11/18 08:00:51;;;;;;;34.55;17.33;;;7.80;99.90;;;;;;5017138;28;20160;-91
2021/11/18 08:03:17;;;;;;;28.33;13.27;;;;;;;;;;5017446;28;20180;-87
2021/11/18 08:05:43;;;;;;;40.63;16.30;;;7.20;99.90;;;;;;4684556;28;10000171;-87
2021/11/18 08:08:09;;;;;;;39.83;16.15;;;;;;;;;;5013815;28;20639;-86
2021/11/18 08:10:35;;;;;;;32.05;13.30;;;7.30;99.90;;;;;;5030749;28;20208;-86
2021/11/18 08:13:01;;;;;;;33.88;14.82;;;;;;;;;;5031488;28;20216;-88
2021/11/18 08:15:28;;;;;;;35.07;17.57;;;;;;;;;;5031072;28;20186;-86
2021/11/18 08:17:54;;;;;;;39.17;17.00;;;8.20;99.90;;;;;;5031372;28;20411;-86
2021/11/18 08:20:21;;;;;;;40.65;17.98;;;7.30;99.90;;;;;;5013123;28;20179;-86
2021/11/18 08:22:48;;;;;;;35.38;15.02;;;8.80;99.90;;;;;;5031126;28;20204;-86
2021/11/18 08:25:16;;;;;;;31.63;15.27;;;6.50;99.90;;;;;;5031726;28;20647;-85
2021/11/18 08:27:43;;;;;;;34.50;17.35;;;7.00;99.90;;;;;;5031572;28;20191;-86
2021/11/18 08:30:14;;;;;;;30.95;15.30;;;7.40;99.90;;;;;;5033063;28;20227;-85
2021/11/18 08:32:40;;;;;;;33.22;15.10;;;8.00;99.90;;;;;;5036863;28;20168;-87
2021/11/18 08:35:14;;;;;;;30.50;15.17;;;7.70;99.90;;;;;;5020752;28;20249;-89
2021/11/18 08:37:42;;;;;;;29.70;14.60;;;;;;;;;;5029064;28;20172;-91
2021/11/18 08:40:09;;;;;;;33.65;12.10;;;7.90;99.90;;;;;;5044331;28;20168;-90
2021/11/18 08:42:35;;;;;;;31.17;15.15;;;8.00;99.90;;;;;;5022692;28;20172;-89
2021/11/18 08:45:01;;;;;;;27.38;15.07;;;;;;;;;;5021494;28;20207;-90
2021/11/18 08:47:27;;;;;;;25.83;13.77;;;;;;;;;;5020872;28;20182;-88
2021/11/18 08:49:53;;;;;;;23.95;12.77;;;;;;;;;;5037299;28;20203;-87
2021/11/18 08:52:26;;;;;;;25.23;12.93;;;7.90;99.90;;;;;;5039281;28;20171;-89
2021/11/18 08:54:55;;;;;;;26.73;12.93;;;8.00;99.90;;;;;;5038795;28;20427;-88
2021/11/18 08:57:22;;;;;;;21.35;12.82;;;8.00;99.90;;;;;;5018763;28;20187;-90
2021/11/18 08:59:49;;;;;;;37.15;15.10;;;7.80;99.90;;;;;;5019948;28;20344;-90
2021/11/18 09:02:22;;;;;;;27.75;14.60;;;6.70;99.90;;;;;;5033819;28;20184;-91
2021/11/18 09:04:49;;;;;;;31.00;13.40;;;8.60;99.90;;;;;;5023109;28;20245;-90
2021/11/18 09:07:17;;;;;;;28.75;14.63;;;;;;;;;;5021817;28;20238;-90
2021/11/18 09:09:43;;;;;;;24.67;11.93;;;;;;;;;;5018053;28;20286;-88
2021/11/18 09:12:10;;;;;;;26.00;14.50;;;8.40;99.90;;;;;;5016933;28;20216;-89
2021/11/18 09:14:36;;;;;;;29.92;12.00;;;;;;;;;;5020037;28;20511;-89
2021/11/18 09:17:07;;;;;;;18.60;11.02;;;9.30;99.90;;;;;;5019811;28;20178;-86
2021/11/18 09:19:41;;;;;;;20.27;11.90;;;9.60;99.90;;;;;;5028842;28;20168;-92
2021/11/18 09:22:14;;;;;;;15.10;9.20;;;9.90;99.90;;;;;;5029315;28;20175;-92
2021/11/18 09:24:49;;;;;;;17.63;10.57;;;10.10;99.90;;;;;;5027696;28;20497;-91
2021/11/18 09:27:34;;;;;;;19.70;11.80;;;9.30;99.90;;;;;;5028422;28;20417;-91
2021/11/18 09:30:18;;;;;;;17.58;9.52;;;10.50;99.90;;;;;;5044317;28;20474;-92
2021/11/18 09:32:46;;;;;;;15.65;10.90;;;;;;;;;;5046840;28;20190;-91
2021/11/18 09:35:16;;;;;;;21.13;12.07;;;10.70;99.90;;;;;;5026784;28;20222;-90
2021/11/18 09:37:47;;;;;;;17.23;10.67;;;;;;;;;;5062940;28;20505;-89
2021/11/18 09:40:17;;;;;;;19.07;10.07;;;11.00;99.90;;;;;;5054453;28;20401;-88
2021/11/18 09:42:56;;;;;;;16.17;10.33;;;11.30;99.90;;;;;;5049919;28;20753;-87
2021/11/18 09:45:23;;;;;;;25.17;11.53;;;11.70;99.90;;;;;;5032815;28;21000;-88
2021/11/18 09:48:05;;;;;;;22.27;11.87;;;10.80;99.90;;;;;;5051239;28;20430;-89
2021/11/18 09:50:56;;;;;;;14.53;10.77;;;13.80;99.90;;;;;;5036461;28;20561;-88
2021/11/18 09:53:33;;;;;;;13.30;8.27;;;12.80;99.90;;;;;;5041426;28;20409;-88
2021/11/18 09:56:10;;;;;;;20.63;10.00;;;12.80;99.90;;;;;;5069415;28;20496;-87
2021/11/18 09:59:14;;;;;;;15.33;9.27;;;14.50;99.90;;;;;;5052326;28;20409;-89
2021/11/18 10:02:10;;;;;;;11.87;8.93;;;12.60;99.90;;;;;;5046704;28;20512;-89
2021/11/18 10:05:07;;;;;;;15.83;10.87;;;12.70;99.90;;;;;;5014984;28;20431;-86
2021/11/18 10:07:48;;;;;;;18.80;10.27;;;12.30;99.90;;;;;;4999700;28;20419;-89
2021/11/18 10:10:25;;;;;;;16.17;10.93;;;10.90;99.90;;;;;;5015718;28;20814;-88
2021/11/18 10:13:08;;;;;;;21.03;11.87;;;11.90;99.90;;;;;;5036183;28;20484;-89
2021/11/18 10:15:44;;;;;;;18.07;10.70;;;11.70;99.90;;;;;;5018225;28;20449;-89
2021/11/18 10:18:22;;;;;;;15.47;9.10;;;11.40;99.90;;;;;;5036738;28;20410;-89
2021/11/18 10:20:54;;;;;;;33.30;11.97;;;11.40;99.90;;;;;;5036514;28;20442;-87
2021/11/18 10:23:24;;;;;;;14.23;8.67;;;12.10;99.90;;;;;;5038201;28;20407;-90
2021/11/18 10:26:04;;;;;;;19.93;10.30;;;12.40;99.90;;;;;;5019156;28;20434;-88
2021/11/18 10:28:59;;;;;;;17.50;10.70;;;14.90;99.90;;;;;;5037923;28;20407;-89
2021/11/18 10:31:48;;;;;;;11.47;9.83;;;12.70;99.90;;;;;;5036845;28;20488;-89
2021/11/18 10:34:21;;;;;;;15.13;10.73;;;12.80;99.90;;;;;;5028779;28;20409;-87
2021/11/18 10:37:12;;;;;;;23.77;8.93;;;13.60;99.90;;;;;;5019678;28;20518;-90
2021/11/18 10:39:57;;;;;;;20.40;10.50;;;13.40;99.90;;;;;;5020553;28;20571;-85
2021/11/18 10:42:23;;;;;;;20.20;9.63;;;13.50;99.90;;;;;;5037389;28;20926;-88
2021/11/18 10:44:57;;;;;;;17.93;9.90;;;13.40;99.90;;;;;;5036619;28;20426;-90
2021/11/18 10:47:45;;;;;;;19.27;10.50;;;13.50;99.90;;;;;;5036858;28;20167;-90
2021/11/18 10:50:28;;;;;;;14.90;9.23;;;13.90;99.90;;;;;;5018431;28;20465;-88
2021/11/18 10:53:14;;;;;;;17.83;10.33;;;14.30;99.90;;;;;;5017982;28;20414;-89
2021/11/18 10:55:43;;;;;;;12.93;8.80;;;14.00;99.90;;;;;;5011243;28;20415;-89
2021/11/18 10:58:23;;;;;;;13.13;9.90;;;14.10;99.90;;;;;;5018425;28;20407;-89
2021/11/18 11:01:05;;;;;;;14.63;10.47;;;17.50;99.90;;;;;;4686271;28;10000084;-88
2021/11/18 11:03:34;;;;;;;22.70;11.17;;;14.80;99.90;;;;;;5015483;28;20176;-90
2021/11/18 11:06:09;;;;;;;22.53;11.53;;;14.80;99.90;;;;;;5016755;28;20483;-90
2021/11/18 11:08:34;;;;;;;17.63;9.90;;;15.20;99.90;;;;;;5025023;28;20418;-92
2021/11/18 11:11:13;;;;;;;16.87;11.27;;;15.40;99.00;;;;;;5015813;28;20508;-87
2021/11/18 11:14:12;;;;;;;24.57;12.63;;;15.50;98.60;;;;;;5033690;28;20184;-89
2021/11/18 11:17:02;;;;;;;16.30;10.40;;;15.70;98.40;;;;;;5016991;28;20530;-89
2021/11/18 11:19:38;;;;;;;16.13;10.03;;;15.90;97.10;;;;;;5018360;28;20484;-89
2021/11/18 11:22:17;;;;;;;17.00;11.20;;;14.80;97.30;;;;;;5039694;28;20500;-87
2021/11/18 11:25:13;;;;;;;19.33;10.90;;;15.00;99.20;;;;;;5026196;28;20419;-92
2021/11/18 11:27:54;;;;;;;19.50;10.60;;;14.80;99.90;;;;;;5024275;28;20491;-91
2021/11/18 11:30:55;;;;;;;17.00;9.30;;;14.30;99.90;;;;;;5020225;28;20988;-90
2021/11/18 11:33:43;;;;;;;15.00;7.70;;;12.70;99.90;;;;;;4978461;28;20435;-89
2021/11/18 11:36:28;;;;;;;14.07;8.97;;;14.30;98.90;;;;;;5026409;28;20691;-92
2021/11/18 11:39:00;;;;;;;11.17;7.13;;;14.30;99.00;;;;;;5005559;28;20416;-91
2021/11/18 11:42:10;;;;;;;8.57;6.60;;;14.50;99.40;;;;;;5025375;28;20435;-89
2021/11/18 11:45:30;;;;;;;14.57;7.90;;;14.70;99.90;;;;;;4981990;28;20442;-89
2021/11/18 11:48:27;;;;;;;16.10;8.03;;;14.80;96.20;;;;;;5026331;28;20509;-92
2021/11/18 11:51:46;;;;;;;14.30;7.60;;;14.70;96.40;;;;;;4981951;28;20482;-90
2021/11/18 11:54:55;;;;;;;19.07;7.33;;;15.30;99.90;;;;;;5027134;28;20416;-89
2021/11/18 11:57:58;;;;;;;9.60;5.17;;;15.20;95.40;;;;;;5028001;28;20456;-93
2021/11/18 12:01:08;;;;;;;12.13;6.23;;;15.40;94.40;;;;;;5027070;28;20474;-91
2021/11/18 12:03:52;;;;;;;8.90;6.17;;;17.70;97.10;;;;;;5029038;28;20438;-89
2021/11/18 12:10:30;;;;;;;18.40;6.63;;;14.90;94.60;;;;;;4964535;28;20475;-91
2021/11/18 12:13:05;;;;;;;14.10;6.40;;;15.10;95.80;;;;;;5020710;28;20491;-91
2021/11/18 12:15:53;;;;;;;10.87;6.10;;;14.70;95.70;;;;;;5024862;28;20414;-90
2021/11/18 12:18:38;;;;;;;14.50;5.20;;;14.70;96.20;;;;;;5021229;28;20416;-92
2021/11/18 12:21:04;;;;;;;17.40;5.87;;;;;;;;;;5003370;28;20480;-88
2021/11/18 12:24:02;;;;;;;9.10;4.30;;;15.10;94.50;;;;;;5004040;28;20841;-91
2021/11/18 12:26:53;;;;;;;18.13;5.70;;;14.90;94.10;;;;;;4995214;28;20424;-89
2021/11/18 12:29:29;;;;;;;9.60;4.70;;;14.90;94.10;;;;;;5001946;28;20463;-91
2021/11/18 12:35:08;;;;;;;18.73;5.07;;;15.00;99.90;;;;;;5008899;28;20479;-89
2021/11/18 12:37:58;;;;;;;9.03;4.33;;;15.10;93.10;;;;;;5021115;28;20424;-91
2021/11/18 12:40:58;;;;;;;14.53;5.40;;;15.20;92.50;;;;;;5019558;28;20420;-92
2021/11/18 12:44:03;;;;;;;10.80;4.70;;;15.00;92.80;;;;;;5022824;28;20423;-91
2021/11/18 12:47:16;;;;;;;;;;;;;;;;;;;;;
2021/11/18 12:49:55;;;;;;;16.17;5.07;;;17.10;93.20;;;;;;5022369;28;20546;-93
2021/11/18 12:52:31;;;;;;;16.87;5.70;;;14.40;93.60;;;;;;5021390;28;20411;-91
2021/11/18 12:55:24;;;;;;;9.97;4.30;;;14.40;95.00;;;;;;5022963;28;20419;-88
2021/11/18 12:58:24;;;;;;;7.10;4.10;;;14.80;94.10;;;;;;5008614;28;20423;-91
2021/11/18 13:01:21;;;;;;;15.77;6.00;;;17.80;96.20;;;;;;5025433;28;20526;-92
2021/11/18 13:03:48;;;;;;;14.17;6.37;;;;;;;;;;5004004;28;20454;-93
2021/11/18 13:06:39;;;;;;;11.67;5.57;;;15.50;91.40;;;;;;5031414;28;20415;-90
2021/11/18 13:09:13;;;;;;;12.00;5.00;;;17.20;92.60;;;;;;5021906;28;20500;-91
2021/11/18 13:12:01;;;;;;;14.13;5.03;;;15.80;91.00;;;;;;5021315;28;20455;-91
2021/11/18 13:14:50;;;;;;;11.87;5.87;;;15.60;90.50;;;;;;4999446;28;20450;-92
2021/11/18 13:17:52;;;;;;;10.80;5.50;;;15.70;99.90;;;;;;5000596;28;20423;-90
2021/11/18 13:20:35;;;;;;;6.90;3.73;;;16.10;98.60;;;;;;5008123;28;20432;-92
2021/11/18 13:23:57;;;;;;;9.90;3.73;;;15.80;99.40;;;;;;5018891;28;20591;-89
2021/11/18 13:26:34;;;;;;;12.87;6.00;;;15.00;91.50;;;;;;5020613;28;20412;-90
2021/11/18 13:29:23;;;;;;;11.17;4.90;;;15.30;99.90;;;;;;5022456;28;20457;-90
2021/11/18 13:32:13;;;;;;;14.13;5.97;;;15.60;96.80;;;;;;5023673;28;20442;-92
2021/11/18 13:35:00;;;;;;;8.37;3.87;;;15.30;90.70;;;;;;5007883;28;20536;-85
2021/11/18 13:38:04;;;;;;;8.10;4.47;;;15.10;99.90;;;;;;5023275;28;20429;-91
2021/11/18 13:41:02;;;;;;;;;;;;;;;;;;;;;
2021/11/18 13:43:51;;;;;;;13.43;3.93;;;15.00;92.80;;;;;;5024412;28;20491;-90
2021/11/18 13:46:27;;;;;;;13.50;4.10;;;14.60;93.30;;;;;;5021533;28;20411;-88
2021/11/18 13:48:57;;;;;;;10.70;5.23;;;14.60;93.70;;;;;;5017730;28;20941;-87